Time;durP1;ratioP1;P1;durP2;ratioP2;P2;SDS_P1;SDS_P2;PMS_P1;PMS_P2;Temp;Humidity;BMP_temperature;BMP_pressure;BME280_temperature;BME280_humidity;BME280_pressure;Samples;Min_cycle;Max_cycle;Signal;HPM_P1;HPM_P2
2023/07/02 00:01:56;;;;;;;16.27;7.22;;;18.10;1.00;;;;;;4895476;29;38204;-87
2023/07/02 00:04:22;;;;;;;14.35;7.63;;;18.10;1.00;;;;;;4885113;29;36039;-86
2023/07/02 00:06:48;;;;;;;20.73;6.72;;;18.00;3.60;;;;;;4895281;29;37725;-86
2023/07/02 00:09:15;;;;;;;22.23;7.68;;;17.90;2.70;;;;;;4891278;29;38571;-86
2023/07/02 00:11:45;;;;;;;23.15;7.75;;;17.90;2.90;;;;;;4882338;29;38657;-88
2023/07/02 00:14:13;;;;;;;15.40;6.55;;;17.90;7.90;;;;;;4895772;29;36183;-86
2023/07/02 00:16:42;;;;;;;17.60;7.28;;;17.90;8.40;;;;;;4904999;29;38908;-86
2023/07/02 00:19:08;;;;;;;19.80;7.70;;;17.90;2.70;;;;;;4907011;29;37968;-86
2023/07/02 00:21:37;;;;;;;17.08;6.75;;;17.90;4.50;;;;;;4901943;29;36932;-87
2023/07/02 00:24:03;;;;;;;15.40;6.10;;;17.90;1.60;;;;;;4895361;29;36684;-87
2023/07/02 00:26:29;;;;;;;14.07;7.05;;;17.80;3.70;;;;;;4896533;29;37827;-87
2023/07/02 00:28:56;;;;;;;16.35;7.68;;;17.80;4.70;;;;;;4905315;29;38916;-86
2023/07/02 00:31:23;;;;;;;18.27;7.20;;;17.80;29.00;;;;;;4899950;29;38350;-87
2023/07/02 00:33:50;;;;;;;19.65;8.00;;;17.80;99.90;;;;;;4897935;29;37007;-85
2023/07/02 00:36:16;;;;;;;16.65;7.63;;;17.90;99.90;;;;;;4885139;29;39016;-86
2023/07/02 00:38:47;;;;;;;20.75;8.32;;;17.80;99.90;;;;;;4896886;29;37047;-85
2023/07/02 00:41:13;;;;;;;18.25;7.60;;;17.90;99.90;;;;;;4912278;29;38407;-88
2023/07/02 00:43:43;;;;;;;25.17;8.35;;;17.80;99.90;;;;;;4894842;29;37177;-85
2023/07/02 00:46:22;;;;;;;19.98;7.55;;;17.90;99.90;;;;;;4883118;29;37734;-85
2023/07/02 00:48:50;;;;;;;19.27;8.68;;;17.80;99.90;;;;;;4896582;29;38995;-87
2023/07/02 00:51:24;;;;;;;20.05;7.80;;;17.80;99.90;;;;;;4884441;29;37740;-86
2023/07/02 00:53:54;;;;;;;22.02;8.45;;;17.80;99.90;;;;;;4913139;29;35875;-84
2023/07/02 00:56:22;;;;;;;21.35;8.48;;;17.80;99.90;;;;;;4909254;29;39434;-88
2023/07/02 00:58:52;;;;;;;18.25;7.47;;;17.80;99.90;;;;;;4885159;29;38000;-86
2023/07/02 01:03:59;;;;;;;22.15;7.70;;;17.80;99.90;;;;;;683377;23;20334;-89
2023/07/02 01:06:27;;;;;;;23.58;7.40;;;17.80;99.90;;;;;;4907480;29;37907;-91
2023/07/02 01:08:56;;;;;;;23.25;7.93;;;17.80;99.90;;;;;;4892434;29;37227;-90
2023/07/02 01:11:31;;;;;;;18.55;7.40;;;17.90;1.00;;;;;;4904004;29;36872;-89
2023/07/02 01:14:13;;;;;;;15.63;7.45;;;17.80;1.00;;;;;;4899911;29;36578;-90
2023/07/02 01:16:43;;;;;;;;;;;17.80;1.00;;;;;;4906468;29;47079;-89
2023/07/02 01:19:19;;;;;;;17.95;7.32;;;17.80;1.00;;;;;;4892070;29;38348;-89
2023/07/02 01:21:47;;;;;;;26.88;8.40;;;17.80;1.00;;;;;;4886154;29;37785;-90
2023/07/02 01:24:14;;;;;;;20.88;8.45;;;17.70;1.00;;;;;;4892765;29;37499;-90
2023/07/02 01:26:40;;;;;;;21.02;8.95;;;17.70;1.00;;;;;;4908627;29;39879;-92
2023/07/02 01:29:17;;;;;;;17.10;7.95;;;17.70;1.00;;;;;;4910551;29;39303;-91
2023/07/02 01:31:46;;;;;;;21.77;8.35;;;17.60;1.00;;;;;;4906630;29;38292;-90
2023/07/02 01:34:14;;;;;;;21.17;8.50;;;17.70;1.00;;;;;;4892568;29;37514;-89
2023/07/02 01:36:40;;;;;;;20.63;8.57;;;17.60;1.00;;;;;;4894023;29;38886;-93
2023/07/02 01:39:06;;;;;;;22.58;8.73;;;17.60;99.90;;;;;;4892211;29;39066;-91
2023/07/02 01:41:52;;;;;;;24.30;8.63;;;17.60;1.00;;;;;;4913188;29;38196;-90
2023/07/02 01:44:19;;;;;;;22.23;7.63;;;17.60;99.90;;;;;;4899648;29;36665;-91
2023/07/02 01:46:49;;;;;;;20.98;7.90;;;17.60;99.90;;;;;;4917808;29;38900;-91
2023/07/02 01:49:16;;;;;;;20.65;7.65;;;17.50;99.90;;;;;;4898554;29;38155;-89
2023/07/02 01:51:54;;;;;;;23.75;8.18;;;17.50;99.90;;;;;;4898888;29;38110;-89
2023/07/02 01:54:22;;;;;;;22.25;8.00;;;17.50;1.00;;;;;;4898603;29;37465;-89
2023/07/02 01:56:48;;;;;;;21.65;7.88;;;17.40;1.00;;;;;;4918199;29;38267;-90
2023/07/02 01:59:16;;;;;;;19.35;8.20;;;17.40;99.90;;;;;;4911888;29;37073;-90
2023/07/02 02:01:42;;;;;;;20.13;8.15;;;17.40;1.00;;;;;;4900862;29;37178;-91
2023/07/02 02:04:09;;;;;;;18.40;7.82;;;17.30;1.00;;;;;;4915671;29;37631;-90
2023/07/02 02:06:39;;;;;;;22.75;8.25;;;17.30;99.90;;;;;;4902148;29;37514;-90
2023/07/02 02:09:05;;;;;;;24.70;8.95;;;17.20;1.00;;;;;;4899334;29;37224;-90
2023/07/02 02:11:33;;;;;;;19.17;8.07;;;17.30;99.90;;;;;;4902634;29;38309;-91
2023/07/02 02:14:01;;;;;;;19.90;7.30;;;17.20;1.00;;;;;;4899210;29;37701;-89
2023/07/02 02:16:28;;;;;;;19.42;8.20;;;17.20;99.90;;;;;;4898176;29;47210;-90
2023/07/02 02:18:54;;;;;;;20.30;7.85;;;17.20;1.00;;;;;;4904284;29;38391;-92
2023/07/02 02:21:21;;;;;;;22.02;8.73;;;17.20;1.00;;;;;;4889240;29;36951;-90
2023/07/02 02:23:48;;;;;;;19.55;8.68;;;17.10;1.00;;;;;;4900513;29;36519;-90
2023/07/02 02:26:14;;;;;;;20.58;7.82;;;17.00;1.00;;;;;;4898605;29;38316;-90
2023/07/02 02:28:42;;;;;;;22.58;8.25;;;17.00;1.00;;;;;;4900057;29;39277;-91
2023/07/02 02:31:09;;;;;;;18.90;7.63;;;17.00;1.00;;;;;;4899000;29;37101;-93
2023/07/02 02:33:35;;;;;;;22.95;8.30;;;16.90;1.00;;;;;;4898912;29;36719;-91
2023/07/02 02:36:03;;;;;;;24.40;8.25;;;16.90;1.00;;;;;;4901008;29;38011;-88
2023/07/02 02:38:29;;;;;;;26.77;9.35;;;16.90;1.00;;;;;;4901509;29;47318;-91
2023/07/02 02:40:55;;;;;;;18.10;7.85;;;16.90;1.00;;;;;;4897127;29;37035;-92
2023/07/02 02:43:22;;;;;;;22.85;8.70;;;16.80;1.00;;;;;;4897917;29;36095;-90
2023/07/02 02:45:48;;;;;;;25.00;8.45;;;16.80;1.00;;;;;;4896328;29;38241;-91
2023/07/02 02:48:14;;;;;;;15.05;7.18;;;16.80;1.00;;;;;;4891422;29;37874;-90
2023/07/02 02:50:42;;;;;;;24.20;8.60;;;16.80;1.00;;;;;;4894700;29;37006;-90
2023/07/02 02:53:09;;;;;;;24.73;8.55;;;16.70;1.00;;;;;;4907711;29;35868;-93
2023/07/02 02:55:38;;;;;;;23.65;8.90;;;16.70;1.00;;;;;;4900491;29;38556;-92
2023/07/02 02:58:04;;;;;;;24.20;8.18;;;16.70;1.00;;;;;;4903436;29;37092;-91
2023/07/02 03:00:30;;;;;;;18.08;7.70;;;16.70;1.00;;;;;;4898813;29;38284;-93
2023/07/02 03:02:58;;;;;;;22.83;8.48;;;16.70;1.00;;;;;;4906587;29;36465;-91
2023/07/02 03:05:24;;;;;;;23.10;8.93;;;16.60;1.00;;;;;;4894620;29;39043;-92
2023/07/02 03:07:51;;;;;;;20.13;7.68;;;16.60;1.00;;;;;;4912328;29;38870;-92
2023/07/02 03:10:17;;;;;;;23.83;8.10;;;16.60;1.00;;;;;;4896703;29;37063;-92
2023/07/02 03:12:43;;;;;;;21.42;7.72;;;16.50;1.00;;;;;;4895459;29;36666;-92
2023/07/02 03:15:10;;;;;;;24.40;8.10;;;16.50;1.00;;;;;;4897097;29;37571;-91
2023/07/02 03:17:36;;;;;;;24.20;8.20;;;16.40;1.00;;;;;;4898385;29;37272;-90
2023/07/02 03:20:07;;;;;;;22.10;7.95;;;16.40;1.00;;;;;;4898604;29;37311;-91
2023/07/02 03:22:45;;;;;;;20.13;8.35;;;16.40;1.00;;;;;;4914051;29;47176;-91
2023/07/02 03:25:12;;;;;;;30.17;8.70;;;16.40;1.00;;;;;;4898497;29;38123;-91
2023/07/02 03:27:38;;;;;;;22.08;7.88;;;16.40;1.00;;;;;;4898355;29;37550;-91
2023/07/02 03:30:05;;;;;;;25.75;8.85;;;16.40;1.00;;;;;;4897215;29;37151;-91
2023/07/02 03:32:31;;;;;;;20.75;8.05;;;16.40;1.00;;;;;;4906215;29;36108;-93
2023/07/02 03:34:57;;;;;;;21.02;7.82;;;16.40;1.00;;;;;;4899769;29;39385;-91
2023/07/02 03:37:24;;;;;;;25.17;8.98;;;16.40;1.00;;;;;;4896858;29;37517;-91
2023/07/02 03:39:50;;;;;;;18.00;7.85;;;16.30;1.00;;;;;;4898136;29;37032;-92
2023/07/02 03:42:16;;;;;;;23.08;8.45;;;16.30;1.00;;;;;;4903076;29;36072;-91
2023/07/02 03:44:42;;;;;;;24.70;8.40;;;16.20;1.00;;;;;;4900489;29;40535;-92
2023/07/02 03:47:08;;;;;;;23.13;8.98;;;16.20;1.00;;;;;;4904861;29;37556;-91
2023/07/02 03:49:34;;;;;;;28.92;9.05;;;16.20;1.00;;;;;;4920831;29;37937;-92
2023/07/02 03:52:03;;;;;;;18.30;7.93;;;16.30;1.00;;;;;;4899860;29;36173;-91
2023/07/02 03:54:29;;;;;;;21.83;8.00;;;16.30;1.00;;;;;;4898447;29;46894;-92
2023/07/02 03:57:12;;;;;;;19.17;6.97;;;16.40;1.00;;;;;;5139697;27;20386;-86
2023/07/02 03:59:38;;;;;;;19.58;7.15;;;16.30;1.00;;;;;;5117654;27;38283;-85
2023/07/02 04:02:04;;;;;;;17.42;6.50;;;16.30;1.00;;;;;;5135790;27;38224;-85
2023/07/02 04:04:31;;;;;;;20.35;7.43;;;16.30;1.00;;;;;;5116356;27;39975;-85
2023/07/02 04:06:57;;;;;;;19.42;7.43;;;16.30;1.00;;;;;;5101075;27;39912;-86
2023/07/02 04:09:23;;;;;;;16.80;6.60;;;16.30;1.00;;;;;;5139191;27;37034;-85
2023/07/02 04:11:49;;;;;;;22.55;7.70;;;16.30;1.00;;;;;;5116441;27;37596;-86
2023/07/02 04:14:15;;;;;;;22.90;7.60;;;16.30;1.00;;;;;;5103275;27;39418;-85
2023/07/02 04:16:44;;;;;;;22.63;6.85;;;16.30;1.00;;;;;;5129397;27;37946;-87
2023/07/02 04:19:11;;;;;;;16.88;6.75;;;16.30;1.00;;;;;;5122859;27;37468;-85
2023/07/02 04:21:37;;;;;;;18.45;6.97;;;16.30;1.00;;;;;;5135620;27;37390;-86
2023/07/02 04:24:03;;;;;;;16.83;6.45;;;16.30;1.00;;;;;;5133432;27;40371;-83
2023/07/02 04:26:30;;;;;;;15.55;6.22;;;16.20;1.00;;;;;;5134192;27;38801;-85
2023/07/02 04:28:56;;;;;;;15.05;6.20;;;16.30;1.00;;;;;;5116869;27;37829;-86
2023/07/02 04:31:22;;;;;;;19.70;6.90;;;16.30;1.00;;;;;;5117113;27;36433;-85
2023/07/02 04:33:48;;;;;;;19.90;7.32;;;16.30;1.00;;;;;;5132626;27;39155;-86
2023/07/02 04:36:15;;;;;;;17.85;7.28;;;16.30;1.00;;;;;;5129991;27;38261;-85
2023/07/02 04:38:41;;;;;;;17.80;6.90;;;16.30;1.00;;;;;;5117410;27;36863;-86
2023/07/02 04:41:10;;;;;;;23.00;6.68;;;16.30;1.00;;;;;;5136952;27;37159;-85
2023/07/02 04:43:36;;;;;;;17.92;6.10;;;16.30;1.00;;;;;;5110718;27;37740;-85
2023/07/02 04:46:02;;;;;;;15.43;6.32;;;16.30;1.00;;;;;;5112514;27;37446;-84
2023/07/02 04:48:29;;;;;;;17.63;7.03;;;16.20;1.00;;;;;;5116610;27;39457;-85
2023/07/02 04:50:55;;;;;;;15.63;6.13;;;16.20;1.00;;;;;;5114940;27;37651;-84
2023/07/02 04:53:21;;;;;;;17.02;6.10;;;16.20;1.00;;;;;;5118955;27;39873;-86
2023/07/02 04:55:47;;;;;;;15.60;6.32;;;16.20;1.00;;;;;;5128027;27;38437;-85
2023/07/02 04:58:13;;;;;;;17.02;5.93;;;16.20;4.80;;;;;;5117137;27;37899;-84
2023/07/02 05:00:39;;;;;;;21.58;6.20;;;16.20;1.00;;;;;;5111141;27;37162;-86
2023/07/02 05:03:05;;;;;;;18.67;6.15;;;16.30;1.00;;;;;;5113230;27;39309;-85
2023/07/02 05:05:32;;;;;;;27.08;6.55;;;16.40;1.00;;;;;;5114012;27;37191;-85
2023/07/02 05:07:58;;;;;;;17.45;5.22;;;16.40;1.00;;;;;;5107471;27;39136;-85
2023/07/02 05:10:24;;;;;;;16.98;6.50;;;16.40;1.00;;;;;;5099106;27;37846;-85
2023/07/02 05:12:50;;;;;;;14.73;6.28;;;16.50;1.00;;;;;;5124901;27;38697;-86
2023/07/02 05:15:16;;;;;;;17.60;5.60;;;16.40;1.00;;;;;;5130029;27;38793;-86
2023/07/02 05:17:42;;;;;;;16.95;5.93;;;16.50;1.00;;;;;;5113550;27;38355;-85
2023/07/02 05:20:09;;;;;;;15.27;6.18;;;16.50;1.00;;;;;;5105631;27;37772;-85
2023/07/02 05:22:35;;;;;;;12.90;6.13;;;16.60;1.00;;;;;;5128493;27;37822;-86
2023/07/02 05:25:01;;;;;;;17.65;6.35;;;16.60;1.00;;;;;;5109129;27;39862;-86
2023/07/02 05:27:28;;;;;;;17.05;6.32;;;16.70;1.00;;;;;;5110283;27;38307;-86
2023/07/02 05:29:54;;;;;;;15.98;6.18;;;16.70;1.00;;;;;;5127131;27;37928;-86
2023/07/02 05:32:20;;;;;;;18.35;7.03;;;16.80;1.00;;;;;;5103757;27;39520;-86
2023/07/02 05:34:46;;;;;;;17.60;6.65;;;16.80;1.00;;;;;;5126415;27;39395;-86
2023/07/02 05:37:12;;;;;;;22.50;7.65;;;16.80;1.00;;;;;;5108891;27;38160;-85
2023/07/02 05:39:38;;;;;;;18.25;6.55;;;16.80;1.00;;;;;;5111258;27;37742;-85
2023/07/02 05:42:05;;;;;;;18.98;7.10;;;16.90;1.00;;;;;;5131768;27;38484;-85
2023/07/02 05:44:31;;;;;;;17.55;7.28;;;16.90;1.00;;;;;;5107014;27;38547;-85
2023/07/02 05:46:57;;;;;;;16.63;6.63;;;17.00;20.30;;;;;;5108940;27;38274;-84
2023/07/02 05:49:23;;;;;;;22.90;7.35;;;17.10;1.00;;;;;;5105979;27;38087;-85
2023/07/02 05:51:49;;;;;;;14.65;6.05;;;17.20;1.00;;;;;;5105362;27;37348;-85
2023/07/02 05:54:15;;;;;;;16.90;6.80;;;17.10;1.00;;;;;;5129660;27;38660;-84
2023/07/02 05:56:42;;;;;;;18.20;6.63;;;17.10;1.00;;;;;;5108734;27;38373;-85
2023/07/02 05:59:08;;;;;;;19.13;6.38;;;17.10;1.00;;;;;;5104487;27;37723;-85
2023/07/02 06:01:34;;;;;;;15.32;6.22;;;17.10;1.00;;;;;;5103550;28;38631;-84
2023/07/02 06:04:00;;;;;;;15.10;6.22;;;17.10;1.00;;;;;;5100183;28;38841;-85
2023/07/02 06:06:26;;;;;;;18.10;6.25;;;17.10;1.00;;;;;;5103499;27;37441;-84
2023/07/02 06:08:52;;;;;;;16.80;6.47;;;17.10;1.00;;;;;;5103204;28;36564;-85
2023/07/02 06:11:18;;;;;;;22.27;6.10;;;17.10;1.00;;;;;;5104256;27;37420;-83
2023/07/02 06:13:45;;;;;;;13.70;5.65;;;17.10;1.00;;;;;;5110871;27;38545;-84
2023/07/02 06:16:11;;;;;;;18.50;6.40;;;17.30;1.00;;;;;;5108055;27;36910;-84
2023/07/02 06:18:37;;;;;;;19.30;6.47;;;17.30;1.00;;;;;;5102962;27;37491;-85
2023/07/02 06:21:03;;;;;;;15.30;5.75;;;17.30;1.00;;;;;;5108440;27;39658;-84
2023/07/02 06:23:38;;;;;;;15.82;6.00;;;17.30;1.00;;;;;;5099832;27;38654;-85
2023/07/02 06:26:04;;;;;;;16.27;6.03;;;17.20;1.00;;;;;;5100342;27;38666;-84
2023/07/02 06:28:31;;;;;;;17.27;6.18;;;17.20;1.00;;;;;;5108262;27;37253;-84
2023/07/02 06:30:57;;;;;;;16.83;6.18;;;17.30;1.00;;;;;;5107311;27;38978;-84
2023/07/02 06:33:23;;;;;;;16.38;6.47;;;17.50;1.00;;;;;;5103212;27;37571;-84
2023/07/02 06:35:50;;;;;;;15.70;5.45;;;17.70;1.00;;;;;;5104484;27;36326;-84
2023/07/02 06:38:16;;;;;;;15.02;6.32;;;18.00;1.00;;;;;;5107162;27;37766;-84
2023/07/02 06:40:42;;;;;;;14.25;5.90;;;18.40;99.90;;;;;;5104873;27;38493;-84
2023/07/02 06:43:08;;;;;;;17.02;5.97;;;18.60;36.50;;;;;;5106342;27;38557;-84
2023/07/02 06:45:35;;;;;;;13.68;5.72;;;18.70;1.00;;;;;;5095960;27;37251;-83
2023/07/02 06:48:01;;;;;;;14.85;5.80;;;18.90;1.00;;;;;;5099875;27;38033;-83
2023/07/02 06:50:28;;;;;;;20.70;6.50;;;18.80;1.00;;;;;;5107071;27;46804;-82
2023/07/02 06:52:54;;;;;;;18.50;6.82;;;18.70;1.00;;;;;;5096768;27;37185;-84
2023/07/02 06:55:20;;;;;;;15.13;6.00;;;18.40;93.90;;;;;;5102558;27;36695;-84
2023/07/02 06:57:47;;;;;;;20.27;5.80;;;18.60;1.00;;;;;;5110773;27;37986;-84
2023/07/02 07:00:14;;;;;;;19.60;6.00;;;18.90;99.90;;;;;;5091007;28;39795;-83
2023/07/02 07:02:40;;;;;;;14.85;6.13;;;19.10;1.00;;;;;;5081251;28;38880;-84
2023/07/02 07:05:06;;;;;;;14.13;5.75;;;19.20;1.00;;;;;;5076187;28;38346;-81
2023/07/02 07:07:32;;;;;;;17.77;6.07;;;19.30;1.00;;;;;;5107003;27;37349;-84
2023/07/02 07:09:59;;;;;;;16.98;5.55;;;19.20;23.60;;;;;;5081371;28;39407;-85
2023/07/02 07:12:25;;;;;;;15.13;5.55;;;18.90;1.00;;;;;;5104177;28;39060;-85
2023/07/02 07:14:51;;;;;;;15.43;5.55;;;19.00;99.90;;;;;;5089083;28;38277;-85
2023/07/02 07:17:17;;;;;;;12.70;5.32;;;19.10;99.90;;;;;;5085680;28;37991;-86
2023/07/02 07:19:43;;;;;;;13.93;5.97;;;19.30;99.90;;;;;;5102923;27;39886;-82
2023/07/02 07:22:09;;;;;;;12.68;5.57;;;19.30;1.00;;;;;;5080814;27;39363;-82
2023/07/02 07:24:35;;;;;;;20.58;6.57;;;19.40;99.90;;;;;;5100024;27;37603;-83
2023/07/02 07:27:01;;;;;;;14.10;5.65;;;19.70;23.60;;;;;;5105788;27;37519;-83
2023/07/02 07:29:28;;;;;;;13.90;5.65;;;19.50;99.90;;;;;;5090798;27;39552;-83
2023/07/02 07:31:54;;;;;;;14.35;6.18;;;19.60;99.90;;;;;;5104466;27;38421;-83
2023/07/02 07:34:20;;;;;;;12.48;5.07;;;19.60;90.70;;;;;;5101203;27;38106;-85
2023/07/02 07:36:47;;;;;;;11.55;5.32;;;19.40;1.00;;;;;;5088124;28;38955;-84
2023/07/02 07:39:13;;;;;;;13.45;5.80;;;19.50;1.00;;;;;;5106955;27;39768;-85
2023/07/02 07:41:41;;;;;;;13.07;5.53;;;19.70;1.00;;;;;;5110803;27;37925;-84
2023/07/02 07:44:10;;;;;;;15.90;5.97;;;19.80;9.10;;;;;;5101938;27;36488;-85
2023/07/02 07:46:36;;;;;;;15.27;5.80;;;19.70;1.00;;;;;;5119656;27;38062;-83
2023/07/02 07:49:03;;;;;;;19.08;5.53;;;19.80;1.00;;;;;;5125531;27;37886;-84
2023/07/02 07:51:30;;;;;;;13.00;5.60;;;20.00;99.90;;;;;;5114342;27;39071;-83
2023/07/02 07:53:56;;;;;;;14.82;5.55;;;20.00;99.90;;;;;;5102836;27;36844;-82
2023/07/02 07:56:22;;;;;;;18.55;6.15;;;20.10;99.90;;;;;;5093926;27;37710;-84
2023/07/02 07:58:48;;;;;;;18.70;6.13;;;20.00;1.00;;;;;;5107843;27;39602;-82
2023/07/02 08:01:14;;;;;;;14.98;6.30;;;20.00;99.90;;;;;;5093108;27;39101;-82
2023/07/02 08:03:41;;;;;;;16.55;6.05;;;20.10;1.00;;;;;;5095341;27;36564;-83
2023/07/02 08:06:07;;;;;;;17.23;6.25;;;20.30;1.00;;;;;;5099683;27;37387;-83
2023/07/02 08:08:33;;;;;;;16.67;6.32;;;20.30;99.90;;;;;;5115281;27;39872;-84
2023/07/02 08:10:59;;;;;;;18.48;6.25;;;20.40;99.90;;;;;;5107460;27;37054;-84
2023/07/02 08:13:25;;;;;;;14.38;6.90;;;20.50;1.00;;;;;;5104186;27;37870;-85
2023/07/02 08:15:52;;;;;;;14.38;5.88;;;20.50;99.90;;;;;;5128943;27;36941;-87
2023/07/02 08:18:18;;;;;;;17.50;6.40;;;20.60;1.00;;;;;;5108704;27;37632;-87
2023/07/02 08:20:44;;;;;;;12.15;5.40;;;20.70;99.90;;;;;;5108737;27;39053;-88
2023/07/02 08:23:11;;;;;;;16.25;5.88;;;21.00;99.90;;;;;;5121868;27;38759;-88
2023/07/02 08:25:37;;;;;;;15.07;6.18;;;21.10;99.90;;;;;;5124095;27;38637;-86
2023/07/02 08:28:03;;;;;;;11.20;4.15;;;21.10;99.90;;;;;;5110255;27;40377;-87
2023/07/02 08:30:30;;;;;;;12.20;5.35;;;21.00;16.30;;;;;;5100240;28;37201;-87
2023/07/02 08:32:57;;;;;;;9.25;5.07;;;21.20;1.00;;;;;;5120167;27;38322;-86
2023/07/02 08:35:23;;;;;;;11.68;4.15;;;21.30;1.00;;;;;;5122249;27;36584;-87
2023/07/02 08:37:49;;;;;;;9.13;3.90;;;21.30;1.00;;;;;;5115790;27;39513;-85
2023/07/02 08:40:19;;;;;;;8.98;3.85;;;21.30;1.00;;;;;;5127070;27;37513;-85
2023/07/02 08:42:49;;;;;;;8.57;3.65;;;21.50;1.00;;;;;;5104471;27;38195;-85
2023/07/02 08:45:16;;;;;;;9.02;3.53;;;21.70;1.00;;;;;;5110429;27;37054;-85
2023/07/02 08:47:45;;;;;;;7.65;3.60;;;21.40;1.00;;;;;;5107302;28;37924;-84
2023/07/02 08:50:13;;;;;;;11.82;3.80;;;21.50;1.00;;;;;;5114485;27;38780;-85
2023/07/02 08:52:39;;;;;;;10.57;3.83;;;21.50;1.00;;;;;;5110772;27;38620;-84
2023/07/02 08:55:06;;;;;;;8.73;3.63;;;21.60;1.00;;;;;;5100205;27;36862;-84
2023/07/02 08:57:32;;;;;;;7.55;2.83;;;21.70;1.00;;;;;;5118886;27;46799;-86
2023/07/02 08:59:59;;;;;;;10.02;4.85;;;21.70;1.00;;;;;;5129508;27;38231;-85
2023/07/02 09:02:34;;;;;;;7.30;3.35;;;21.70;1.00;;;;;;5123371;27;38697;-85
2023/07/02 09:05:01;;;;;;;9.32;3.92;;;21.60;1.00;;;;;;5129695;27;36098;-86
2023/07/02 09:07:28;;;;;;;7.32;3.47;;;21.70;1.00;;;;;;5127022;27;37815;-85
2023/07/02 09:09:54;;;;;;;7.28;3.40;;;21.70;1.00;;;;;;5108804;27;39100;-86
2023/07/02 09:12:31;;;;;;;10.02;3.50;;;21.80;1.00;;;;;;5098892;27;38570;-85
2023/07/02 09:15:02;;;;;;;4.35;2.72;;;22.30;1.00;;;;;;5099971;27;36952;-83
2023/07/02 09:17:38;;;;;;;7.03;3.10;;;22.20;99.90;;;;;;5096349;27;39209;-84
2023/07/02 09:20:07;;;;;;;6.93;3.08;;;22.30;99.90;;;;;;5102480;27;39951;-82
2023/07/02 09:22:33;;;;;;;8.68;3.30;;;22.30;99.90;;;;;;5097106;27;48387;-84
2023/07/02 09:25:02;;;;;;;6.05;3.10;;;22.40;99.90;;;;;;5098301;27;37517;-83
2023/07/02 09:27:39;;;;;;;9.25;3.17;;;22.40;99.90;;;;;;5097884;27;40899;-84
2023/07/02 09:30:19;;;;;;;6.43;2.78;;;22.50;99.90;;;;;;5100457;28;38629;-84
2023/07/02 09:32:46;;;;;;;9.75;3.40;;;22.80;1.00;;;;;;5099200;27;48548;-84
2023/07/02 09:35:12;;;;;;;7.68;2.95;;;23.00;99.90;;;;;;5104926;27;36884;-84
2023/07/02 09:37:43;;;;;;;6.15;3.00;;;23.00;99.90;;;;;;5107713;27;38045;-84
2023/07/02 09:40:10;;;;;;;6.68;3.38;;;23.20;99.90;;;;;;5119304;27;38951;-84
2023/07/02 09:42:39;;;;;;;10.40;3.40;;;23.20;99.90;;;;;;5101464;27;37826;-84
2023/07/02 09:45:08;;;;;;;6.40;3.08;;;23.10;99.90;;;;;;5102778;27;37404;-84
2023/07/02 09:47:41;;;;;;;8.07;3.35;;;22.80;99.90;;;;;;5119165;27;39695;-85
2023/07/02 09:50:08;;;;;;;8.27;3.47;;;22.50;99.90;;;;;;5119923;27;40270;-85
2023/07/02 09:52:35;;;;;;;5.30;2.38;;;22.30;99.90;;;;;;5125955;27;38073;-85
2023/07/02 09:55:03;;;;;;;5.15;2.65;;;22.40;99.90;;;;;;5127481;27;37125;-85
2023/07/02 09:57:31;;;;;;;7.60;2.63;;;22.90;99.90;;;;;;5114935;27;47298;-84
2023/07/02 10:00:00;;;;;;;6.60;3.33;;;22.90;99.90;;;;;;5117459;27;40329;-85
2023/07/02 10:02:26;;;;;;;9.57;3.78;;;22.90;99.90;;;;;;5107000;27;38500;-86
2023/07/02 10:04:54;;;;;;;7.50;3.17;;;23.00;99.90;;;;;;5113017;27;37610;-84
2023/07/02 10:07:32;;;;;;;6.50;3.67;;;22.70;99.90;;;;;;5113837;27;38705;-85
2023/07/02 10:09:58;;;;;;;7.40;3.55;;;22.70;99.90;;;;;;5116334;27;39027;-85
2023/07/02 10:12:25;;;;;;;8.07;3.53;;;22.80;99.90;;;;;;5105077;27;38418;-85
2023/07/02 10:14:53;;;;;;;8.45;3.53;;;22.90;99.90;;;;;;5121694;27;36501;-84
2023/07/02 10:17:28;;;;;;;10.02;3.55;;;23.20;99.90;;;;;;5142002;27;39047;-84
2023/07/02 10:19:56;;;;;;;6.55;3.80;;;23.40;99.90;;;;;;5133076;27;39925;-85
2023/07/02 10:22:22;;;;;;;9.68;3.47;;;23.40;99.90;;;;;;5115381;27;37412;-86
2023/07/02 10:24:53;;;;;;;9.57;3.40;;;23.10;99.90;;;;;;5113016;27;37174;-86
2023/07/02 10:27:19;;;;;;;8.73;3.47;;;22.90;99.90;;;;;;5112981;27;42489;-85
2023/07/02 10:29:51;;;;;;;6.88;3.72;;;22.60;99.90;;;;;;5112209;27;40004;-85
2023/07/02 10:32:31;;;;;;;7.78;4.10;;;22.30;99.90;;;;;;5093678;27;37907;-85
2023/07/02 10:34:58;;;;;;;7.80;3.78;;;22.40;99.90;;;;;;5103523;27;36453;-82
2023/07/02 10:37:24;;;;;;;9.02;4.20;;;22.60;99.90;;;;;;5111648;27;39532;-86
2023/07/02 10:39:52;;;;;;;8.98;4.03;;;22.60;99.90;;;;;;5114870;27;38030;-86
2023/07/02 10:42:18;;;;;;;12.40;5.10;;;22.90;99.90;;;;;;5117124;27;39462;-85
2023/07/02 10:44:50;;;;;;;12.57;4.65;;;23.20;99.90;;;;;;5121844;27;37037;-84
2023/07/02 10:47:17;;;;;;;9.05;4.05;;;23.40;99.90;;;;;;5117260;27;39355;-85
2023/07/02 10:49:46;;;;;;;11.82;4.60;;;23.20;99.90;;;;;;5121262;27;38980;-85
2023/07/02 10:52:12;;;;;;;12.23;4.72;;;23.50;99.90;;;;;;5122768;27;36490;-85
2023/07/02 10:54:46;;;;;;;9.32;4.80;;;23.30;99.90;;;;;;5106032;27;37706;-84
2023/07/02 10:57:21;;;;;;;10.75;4.30;;;22.90;99.90;;;;;;5105538;27;38993;-85
2023/07/02 10:59:48;;;;;;;10.80;4.72;;;22.90;99.90;;;;;;5105857;27;39708;-85
2023/07/02 11:02:15;;;;;;;8.73;4.97;;;22.80;99.90;;;;;;5100135;27;38424;-85
2023/07/02 11:04:41;;;;;;;12.02;4.43;;;23.00;99.90;;;;;;5100068;27;36073;-85
2023/07/02 11:07:09;;;;;;;13.57;5.35;;;23.20;99.90;;;;;;5095033;27;40443;-84
2023/07/02 11:09:36;;;;;;;10.75;4.88;;;22.60;99.90;;;;;;5088762;27;38843;-85
2023/07/02 11:12:02;;;;;;;11.00;5.85;;;22.50;99.90;;;;;;5114769;27;37734;-85
2023/07/02 11:14:33;;;;;;;13.05;5.10;;;22.90;99.90;;;;;;5092178;27;37796;-84
2023/07/02 11:17:05;;;;;;;10.75;4.28;;;23.20;99.90;;;;;;5108770;27;39662;-85
2023/07/02 11:19:36;;;;;;;9.57;4.47;;;22.70;99.90;;;;;;5106852;27;48225;-85
2023/07/02 11:22:02;;;;;;;11.70;4.95;;;22.80;99.90;;;;;;5098846;27;37854;-85
2023/07/02 11:24:36;;;;;;;9.70;4.63;;;22.80;99.90;;;;;;5099635;27;37849;-84
2023/07/02 11:27:07;;;;;;;13.18;5.15;;;22.80;99.90;;;;;;5102900;27;39222;-84
2023/07/02 11:29:36;;;;;;;14.13;4.57;;;22.90;99.90;;;;;;5097488;27;38583;-83
2023/07/02 11:32:11;;;;;;;9.82;4.30;;;23.10;99.90;;;;;;5114292;27;36782;-84
2023/07/02 11:34:38;;;;;;;11.23;4.95;;;22.30;99.90;;;;;;5097179;27;36962;-85
2023/07/02 11:37:05;;;;;;;10.02;4.57;;;22.00;99.90;;;;;;5093055;27;38280;-84
2023/07/02 11:39:32;;;;;;;11.68;4.80;;;22.00;99.90;;;;;;5097309;27;38609;-83
2023/07/02 11:41:58;;;;;;;10.75;4.85;;;21.90;99.90;;;;;;5096843;27;37525;-84
2023/07/02 11:44:24;;;;;;;7.88;4.57;;;22.60;99.90;;;;;;5095193;27;37950;-83
2023/07/02 11:46:50;;;;;;;9.02;4.60;;;23.30;99.90;;;;;;5089607;27;40377;-84
2023/07/02 11:49:17;;;;;;;12.07;4.70;;;23.40;99.90;;;;;;5092675;27;39516;-84
2023/07/02 11:51:49;;;;;;;10.00;5.13;;;23.70;99.90;;;;;;5090156;27;39723;-83
2023/07/02 11:54:18;;;;;;;8.45;4.35;;;23.70;99.90;;;;;;5105068;27;38389;-83
2023/07/02 11:56:45;;;;;;;7.18;4.28;;;23.60;99.90;;;;;;5098541;27;39620;-84
2023/07/02 11:59:11;;;;;;;9.27;4.38;;;24.00;99.90;;;;;;5103918;27;37527;-83
2023/07/02 12:01:37;;;;;;;9.05;4.45;;;23.90;99.90;;;;;;5110072;27;38074;-82
2023/07/02 12:04:05;;;;;;;9.20;4.85;;;24.30;99.90;;;;;;5118833;27;37682;-83
2023/07/02 12:06:31;;;;;;;10.63;4.85;;;24.30;99.90;;;;;;5116507;27;39330;-84
2023/07/02 12:08:57;;;;;;;9.05;4.28;;;24.40;99.90;;;;;;5117684;27;38727;-84
2023/07/02 12:11:24;;;;;;;8.40;4.50;;;24.70;99.90;;;;;;5114046;27;39173;-84
2023/07/02 12:13:50;;;;;;;6.82;4.25;;;24.70;99.90;;;;;;5119480;27;37505;-84
2023/07/02 12:16:16;;;;;;;11.98;4.75;;;24.60;99.90;;;;;;5120659;27;38952;-84
2023/07/02 12:18:42;;;;;;;8.77;4.20;;;24.90;99.90;;;;;;5134346;27;38184;-84
2023/07/02 12:21:08;;;;;;;7.63;3.70;;;24.50;99.90;;;;;;5129541;27;37436;-84
2023/07/02 12:23:35;;;;;;;11.65;4.40;;;24.10;81.40;;;;;;5100315;27;38290;-83
2023/07/02 12:26:01;;;;;;;9.10;4.50;;;23.50;94.00;;;;;;5103975;27;37828;-82
2023/07/02 12:28:28;;;;;;;11.43;4.57;;;23.50;99.90;;;;;;5096568;27;47987;-82
2023/07/02 12:30:55;;;;;;;11.30;4.40;;;24.00;99.90;;;;;;5100553;27;38745;-82
2023/07/02 12:33:21;;;;;;;10.07;4.32;;;24.40;90.80;;;;;;5109520;27;38175;-83
2023/07/02 12:35:47;;;;;;;8.93;4.55;;;24.20;73.30;;;;;;5118007;27;39639;-82
2023/07/02 12:38:13;;;;;;;12.73;3.97;;;23.60;74.90;;;;;;5118726;27;37854;-82
2023/07/02 12:40:40;;;;;;;10.57;3.88;;;23.60;78.00;;;;;;5119363;27;38305;-82
2023/07/02 12:43:06;;;;;;;5.10;3.92;;;24.00;99.90;;;;;;5116356;27;38159;-82
2023/07/02 12:45:32;;;;;;;11.50;5.05;;;24.30;68.40;;;;;;5121467;27;39953;-82
2023/07/02 12:47:58;;;;;;;12.63;4.45;;;24.30;60.90;;;;;;5124035;27;39377;-81
2023/07/02 12:50:24;;;;;;;7.65;4.00;;;24.00;59.70;;;;;;5123216;27;37699;-81